createdAt,value
2023-03-12T00:00:28.548Z,16.90
2023-03-12T00:02:56.959Z,17.03
2023-03-12T00:05:25.864Z,16.90
2023-03-12T00:07:54.282Z,16.57
2023-03-12T00:10:22.542Z,16.77
2023-03-12T00:12:50.472Z,16.77
2023-03-12T00:15:20.000Z,17.23
2023-03-12T00:17:49.189Z,17.17
2023-03-12T00:20:17.677Z,16.53
2023-03-12T00:22:45.740Z,17.00
2023-03-12T00:25:21.258Z,16.80
2023-03-12T00:27:51.343Z,17.40
2023-03-12T00:30:20.826Z,17.30
2023-03-12T00:32:48.807Z,17.30
2023-03-12T00:35:16.831Z,17.40
2023-03-12T00:37:44.783Z,17.20
2023-03-12T00:40:13.857Z,17.10
2023-03-12T00:42:41.909Z,17.10
2023-03-12T00:45:10.612Z,17.43
2023-03-12T00:47:40.158Z,18.00
2023-03-12T00:50:09.065Z,17.53
2023-03-12T00:52:37.147Z,17.10
2023-03-12T00:55:05.611Z,16.80
2023-03-12T00:57:33.581Z,17.77
2023-03-12T01:00:01.693Z,17.30
2023-03-12T01:02:30.496Z,17.80
2023-03-12T01:04:59.864Z,17.93
2023-03-12T01:07:27.954Z,17.97
2023-03-12T01:09:56.744Z,17.80
2023-03-12T01:12:25.078Z,17.90
2023-03-12T01:14:53.220Z,17.73
2023-03-12T01:17:21.258Z,18.93
2023-03-12T01:19:49.245Z,17.90
2023-03-12T01:22:18.600Z,18.60
2023-03-12T01:24:46.576Z,18.50
2023-03-12T01:27:14.723Z,18.03
2023-03-12T01:29:42.857Z,16.67
2023-03-12T01:32:10.826Z,16.20
2023-03-12T01:34:38.831Z,16.80
2023-03-12T01:37:08.183Z,17.17
2023-03-12T01:39:38.204Z,17.30
2023-03-12T01:42:06.532Z,17.30
2023-03-12T01:44:53.842Z,17.03
2023-03-12T01:47:21.912Z,17.43
2023-03-12T01:49:51.607Z,17.27
2023-03-12T01:52:23.244Z,17.50
2023-03-12T01:54:58.240Z,17.60
2023-03-12T01:57:32.528Z,17.30
2023-03-12T02:00:05.684Z,16.90
2023-03-12T02:02:34.769Z,18.00
2023-03-12T02:05:10.232Z,18.17
2023-03-12T02:07:38.371Z,18.27
2023-03-12T02:10:08.411Z,19.07
2023-03-12T02:12:36.430Z,18.07
2023-03-12T02:15:05.534Z,18.43
2023-03-12T02:17:33.693Z,17.77
2023-03-12T02:20:08.733Z,17.67
2023-03-12T02:22:37.116Z,17.40
2023-03-12T02:25:17.090Z,35.87
2023-03-12T02:27:45.829Z,37.60
2023-03-12T02:30:16.219Z,37.80
2023-03-12T02:32:46.450Z,37.67
2023-03-12T02:35:15.963Z,37.00
2023-03-12T02:37:51.590Z,36.60
2023-03-12T02:40:28.275Z,37.70
2023-03-12T02:42:57.451Z,38.50
2023-03-12T02:45:26.926Z,38.63
2023-03-12T02:47:55.748Z,38.60
2023-03-12T02:50:24.033Z,18.47
2023-03-12T02:52:52.194Z,18.93
2023-03-12T02:55:21.698Z,18.03
2023-03-12T02:57:50.192Z,17.80
2023-03-12T03:00:19.954Z,17.80
2023-03-12T03:02:47.964Z,17.50
2023-03-12T03:05:15.975Z,17.47
2023-03-12T03:07:44.477Z,17.60
2023-03-12T03:10:13.163Z,17.50
2023-03-12T03:12:42.568Z,17.80
2023-03-12T03:15:11.936Z,17.53
2023-03-12T03:17:40.001Z,17.30
2023-03-12T03:20:11.358Z,17.53
2023-03-12T03:22:39.837Z,18.47
2023-03-12T03:25:09.398Z,18.30
2023-03-12T03:27:37.862Z,18.40
2023-03-12T03:30:09.109Z,17.30
2023-03-12T03:32:37.184Z,19.07
2023-03-12T03:35:05.570Z,18.97
2023-03-12T03:37:33.881Z,19.17
2023-03-12T03:40:01.935Z,18.10
2023-03-12T03:42:30.020Z,17.60
2023-03-12T03:44:57.969Z,17.83
2023-03-12T03:47:27.317Z,18.00
2023-03-12T03:49:55.340Z,18.20
2023-03-12T03:52:23.299Z,18.20
2023-03-12T03:54:51.227Z,37.07
2023-03-12T03:57:19.321Z,37.73
2023-03-12T03:59:47.262Z,37.43
2023-03-12T04:02:15.290Z,36.47
2023-03-12T04:04:44.659Z,37.57
2023-03-12T04:07:12.610Z,36.33
2023-03-12T04:09:40.683Z,36.37
2023-03-12T04:12:09.182Z,36.27
2023-03-12T04:14:40.298Z,36.60
2023-03-12T04:17:08.443Z,37.17
2023-03-12T04:19:37.098Z,37.17
2023-03-12T04:22:06.575Z,38.10
2023-03-12T04:24:34.550Z,37.47
2023-03-12T04:27:02.675Z,37.43
2023-03-12T04:29:30.662Z,40.00
2023-03-12T04:31:58.669Z,39.43
2023-03-12T04:34:26.732Z,39.13
2023-03-12T04:36:54.755Z,38.47
2023-03-12T04:39:24.101Z,40.43
2023-03-12T04:41:52.280Z,37.87
2023-03-12T04:44:20.497Z,17.27
2023-03-12T04:46:48.471Z,17.90
2023-03-12T04:49:16.521Z,17.87
2023-03-12T04:51:44.541Z,17.93
2023-03-12T04:54:12.539Z,18.00
2023-03-12T04:56:41.899Z,18.17
2023-03-12T04:59:10.035Z,17.93
2023-03-12T05:01:38.410Z,18.10
2023-03-12T05:04:07.244Z,18.10
2023-03-12T05:06:35.980Z,17.93
2023-03-12T05:09:04.699Z,17.90
2023-03-12T05:11:32.965Z,17.63
2023-03-12T05:14:02.936Z,18.00
2023-03-12T05:16:30.960Z,17.50
2023-03-12T05:18:59.294Z,17.73
2023-03-12T05:21:27.731Z,36.50
2023-03-12T05:23:55.785Z,37.17
2023-03-12T05:26:25.963Z,36.33
2023-03-12T05:28:54.068Z,37.70
2023-03-12T05:31:23.548Z,36.23
2023-03-12T05:33:53.034Z,36.00
2023-03-12T05:36:21.766Z,45.47
2023-03-12T05:38:49.768Z,40.00
2023-03-12T05:41:21.466Z,40.70
2023-03-12T05:43:49.657Z,38.90
2023-03-12T05:46:17.740Z,38.13
2023-03-12T05:48:47.190Z,17.07
2023-03-12T05:51:15.754Z,16.80
2023-03-12T05:53:43.727Z,17.57
2023-03-12T05:56:14.369Z,18.30
2023-03-12T05:58:42.965Z,33.83
2023-03-12T06:01:16.017Z,34.23
2023-03-12T06:03:44.127Z,34.37
2023-03-12T06:06:13.835Z,33.53
2023-03-12T06:08:42.752Z,33.83
2023-03-12T06:11:11.167Z,34.40
2023-03-12T06:13:39.909Z,33.20
2023-03-12T06:16:10.715Z,33.17
2023-03-12T06:18:39.389Z,34.50
2023-03-12T06:21:13.940Z,33.63
2023-03-12T06:23:42.914Z,33.13
2023-03-12T06:26:12.378Z,34.07
2023-03-12T06:28:42.241Z,34.47
2023-03-12T06:31:11.028Z,16.67
2023-03-12T06:33:39.344Z,16.77
2023-03-12T06:36:09.017Z,16.80
2023-03-12T06:38:38.948Z,16.67
2023-03-12T06:41:08.360Z,16.07
2023-03-12T06:43:38.731Z,15.53
2023-03-12T06:46:07.886Z,15.73
2023-03-12T06:48:37.344Z,17.03
2023-03-12T06:51:06.324Z,16.27
2023-03-12T06:53:34.367Z,16.70
2023-03-12T06:56:04.664Z,17.90
2023-03-12T06:58:33.094Z,16.97
2023-03-12T07:01:01.113Z,17.10
2023-03-12T07:03:29.081Z,16.30
2023-03-12T07:05:58.293Z,32.87
2023-03-12T07:08:29.897Z,33.93
2023-03-12T07:11:01.140Z,32.20
2023-03-12T07:13:31.599Z,34.13
2023-03-12T07:15:59.783Z,34.60
2023-03-12T07:18:28.298Z,33.73
2023-03-12T07:20:56.634Z,33.23
2023-03-12T07:23:25.831Z,32.73
2023-03-12T07:25:54.494Z,34.13
2023-03-12T07:28:23.694Z,33.07
2023-03-12T07:30:53.052Z,33.00
2023-03-12T07:33:22.744Z,34.33
2023-03-12T07:35:51.927Z,34.70
2023-03-12T07:38:20.224Z,33.27
2023-03-12T07:40:52.689Z,33.93
2023-03-12T07:43:21.858Z,34.23
2023-03-12T07:45:50.637Z,34.63
2023-03-12T07:48:20.338Z,34.77
2023-03-12T07:50:48.979Z,33.73
2023-03-12T07:53:17.073Z,16.97
2023-03-12T07:55:46.705Z,15.73
2023-03-12T07:58:15.687Z,17.57
2023-03-12T08:00:44.432Z,14.47
2023-03-12T08:03:13.275Z,18.17
2023-03-12T08:05:42.930Z,16.10
2023-03-12T08:08:11.164Z,17.90
2023-03-12T08:10:39.344Z,17.73
2023-03-12T08:13:07.364Z,18.10
2023-03-12T08:15:35.386Z,17.20
2023-03-12T08:18:03.343Z,17.37
2023-03-12T08:20:34.597Z,17.00
2023-03-12T08:23:03.942Z,16.90
2023-03-12T08:25:31.962Z,17.30
2023-03-12T08:28:00.194Z,17.00
2023-03-12T08:30:30.209Z,18.03
2023-03-12T08:32:58.744Z,19.30
2023-03-12T08:35:26.909Z,18.87
2023-03-12T08:37:56.994Z,22.03
2023-03-12T08:40:26.523Z,26.07
2023-03-12T08:42:54.517Z,22.43
2023-03-12T08:45:22.462Z,30.83
2023-03-12T08:47:50.494Z,28.03
2023-03-12T08:50:20.369Z,29.43
2023-03-12T08:52:48.328Z,27.80
2023-03-12T08:55:16.404Z,27.47
2023-03-12T08:57:45.739Z,27.20
2023-03-12T09:00:16.119Z,26.73
2023-03-12T09:02:45.510Z,31.07
2023-03-12T09:05:14.141Z,32.30
2023-03-12T09:07:42.160Z,24.90
2023-03-12T09:10:10.995Z,30.27
2023-03-12T09:12:38.995Z,26.83
2023-03-12T09:15:09.954Z,22.50
2023-03-12T09:17:38.771Z,24.00
2023-03-12T09:20:10.019Z,20.88
2023-03-12T09:22:38.105Z,16.10
2023-03-12T09:25:07.609Z,16.53
2023-03-12T09:27:37.975Z,16.70
2023-03-12T09:30:09.352Z,16.60
2023-03-12T09:32:37.460Z,16.80
2023-03-12T09:35:06.464Z,17.80
2023-03-12T09:37:35.086Z,17.70
2023-03-12T09:40:05.767Z,18.37
2023-03-12T09:42:41.461Z,18.33
2023-03-12T09:45:16.795Z,18.50
2023-03-12T09:47:50.367Z,17.23
2023-03-12T09:50:27.574Z,17.00
2023-03-12T09:53:00.754Z,17.60
2023-03-12T09:55:33.700Z,18.27
2023-03-12T09:58:01.724Z,19.43
2023-03-12T10:00:34.931Z,25.03
2023-03-12T10:03:17.995Z,46.93
2023-03-12T10:05:50.988Z,36.47
2023-03-12T10:08:28.318Z,34.93
2023-03-12T10:11:07.106Z,35.37
2023-03-12T10:13:47.100Z,36.40
2023-03-12T10:16:30.689Z,46.53
2023-03-12T10:19:11.403Z,49.33
2023-03-12T10:21:50.401Z,35.80
2023-03-12T10:24:31.507Z,35.17
2023-03-12T10:27:01.975Z,35.95
2023-03-12T10:29:33.793Z,35.80
2023-03-12T10:32:08.375Z,35.83
2023-03-12T10:34:44.027Z,35.37
2023-03-12T10:37:18.422Z,35.63
2023-03-12T10:39:47.041Z,34.50
2023-03-12T10:42:19.017Z,34.38
2023-03-12T10:44:49.954Z,34.00
2023-03-12T10:47:31.417Z,34.35
2023-03-12T10:50:16.586Z,35.70
2023-03-12T10:52:44.959Z,36.03
2023-03-12T10:55:21.579Z,18.88
2023-03-12T10:57:50.202Z,17.30
2023-03-12T11:00:24.256Z,17.55
2023-03-12T11:03:03.825Z,16.45
2023-03-12T11:05:34.698Z,18.33
2023-03-12T11:08:04.446Z,17.42
2023-03-12T11:10:44.909Z,16.98
2023-03-12T11:13:25.709Z,17.98
2023-03-12T11:15:54.286Z,17.90
2023-03-12T11:18:35.795Z,19.75
2023-03-12T11:21:19.826Z,16.00
2023-03-12T11:24:07.400Z,17.17
2023-03-12T11:26:41.107Z,20.10
2023-03-12T11:29:19.488Z,30.70
2023-03-12T11:31:57.625Z,22.67
2023-03-12T11:34:29.523Z,17.00
2023-03-12T11:37:07.573Z,19.25
2023-03-12T11:39:48.463Z,18.38
2023-03-12T11:42:31.382Z,19.67
2023-03-12T11:45:14.178Z,18.20
2023-03-12T11:48:00.518Z,17.77
2023-03-12T11:50:44.021Z,17.92
2023-03-12T11:53:31.151Z,16.48
2023-03-12T11:56:11.367Z,22.55
2023-03-12T11:58:54.323Z,17.70
2023-03-12T12:01:31.479Z,17.52
2023-03-12T12:04:21.650Z,17.58
2023-03-12T12:07:03.049Z,19.45
2023-03-12T12:09:39.233Z,18.20
2023-03-12T12:12:19.015Z,28.35
2023-03-12T12:15:01.824Z,18.90
2023-03-12T12:17:41.594Z,24.83
2023-03-12T12:20:21.635Z,17.63
2023-03-12T12:23:10.430Z,20.65
2023-03-12T12:26:05.779Z,33.60
2023-03-12T12:28:55.422Z,19.77
2023-03-12T12:31:33.159Z,29.75
2023-03-12T12:34:26.723Z,27.65
2023-03-12T12:37:02.245Z,28.02
2023-03-12T12:39:36.254Z,31.42
2023-03-12T12:42:07.240Z,33.55
2023-03-12T12:44:41.197Z,34.97
2023-03-12T12:47:17.503Z,28.27
2023-03-12T12:49:48.805Z,18.35
2023-03-12T12:52:20.041Z,18.25
2023-03-12T12:54:59.628Z,23.45
2023-03-12T12:57:36.678Z,19.40
2023-03-12T13:00:16.575Z,17.73
2023-03-12T13:02:48.000Z,21.27
2023-03-12T13:05:26.579Z,31.90
2023-03-12T13:07:55.121Z,31.38
2023-03-12T13:10:57.048Z,32.63
2023-03-12T13:13:30.818Z,33.17
2023-03-12T13:16:31.135Z,32.50
2023-03-12T13:19:00.362Z,30.85
2023-03-12T13:21:36.699Z,12.60
2023-03-12T13:24:18.358Z,17.83
2023-03-12T13:27:01.660Z,17.90
2023-03-12T13:29:41.216Z,19.20
2023-03-12T13:33:01.727Z,17.40
2023-03-12T13:35:32.412Z,17.05
2023-03-12T13:38:06.869Z,17.00
2023-03-12T13:40:37.600Z,17.60
2023-03-12T13:43:12.629Z,17.50
2023-03-12T13:46:00.790Z,17.90
2023-03-12T13:48:30.345Z,17.80
2023-03-12T13:51:00.825Z,18.20
2023-03-12T13:53:34.556Z,17.25
2023-03-12T13:56:05.583Z,18.23
2023-03-12T13:58:41.591Z,17.65
2023-03-12T14:01:16.356Z,17.38
2023-03-12T14:03:49.743Z,18.73
2023-03-12T14:06:20.551Z,18.08
2023-03-12T14:09:09.471Z,18.50
2023-03-12T14:11:55.191Z,22.48
2023-03-12T14:14:41.562Z,19.15
2023-03-12T14:17:18.076Z,18.75
2023-03-12T14:19:52.460Z,24.27
2023-03-12T14:22:23.866Z,18.20
2023-03-12T14:24:55.679Z,16.60
2023-03-12T14:27:27.972Z,19.58
2023-03-12T14:29:59.184Z,18.38
2023-03-12T14:32:30.789Z,18.92
2023-03-12T14:35:09.575Z,18.00
2023-03-12T14:37:42.286Z,19.13
2023-03-12T14:40:21.903Z,30.65
2023-03-12T14:42:49.992Z,17.35
2023-03-12T14:45:20.255Z,19.55
2023-03-12T14:47:50.192Z,20.45
2023-03-12T14:50:22.021Z,19.52
2023-03-12T14:52:50.027Z,28.65
2023-03-12T14:55:22.477Z,30.33
2023-03-12T14:57:51.084Z,13.35
2023-03-12T15:00:27.446Z,17.15
2023-03-12T15:02:58.929Z,17.35
2023-03-12T15:05:28.412Z,15.50
2023-03-12T15:08:02.887Z,18.92
2023-03-12T15:10:32.962Z,16.30
2023-03-12T15:13:02.372Z,16.48
2023-03-12T15:15:38.070Z,16.50
2023-03-12T15:18:08.342Z,17.30
2023-03-12T15:20:38.199Z,16.73
2023-03-12T15:23:07.851Z,16.80
2023-03-12T15:25:36.210Z,17.25
2023-03-12T15:28:09.527Z,16.52
2023-03-12T15:30:39.678Z,16.80
2023-03-12T15:33:13.970Z,15.77
2023-03-12T15:35:58.584Z,16.95
2023-03-12T15:38:27.223Z,18.95
2023-03-12T15:41:00.243Z,16.77
2023-03-12T15:43:28.704Z,16.55
2023-03-12T15:46:02.745Z,16.80
2023-03-12T15:48:33.896Z,16.30
2023-03-12T15:51:03.554Z,16.73
2023-03-12T15:53:33.410Z,16.65
2023-03-12T15:56:06.161Z,17.80
2023-03-12T15:58:36.780Z,18.30
2023-03-12T16:01:10.438Z,16.23
2023-03-12T16:03:39.021Z,16.77
2023-03-12T16:06:14.228Z,16.50
2023-03-12T16:08:45.646Z,16.40
2023-03-12T16:11:18.297Z,16.70
2023-03-12T16:13:47.813Z,16.65
2023-03-12T16:16:16.313Z,16.50
2023-03-12T16:18:45.105Z,17.40
2023-03-12T16:21:14.480Z,16.70
2023-03-12T16:23:42.460Z,16.55
2023-03-12T16:26:12.428Z,16.33
2023-03-12T16:28:40.904Z,16.55
2023-03-12T16:31:13.411Z,16.70
2023-03-12T16:33:41.489Z,16.05
2023-03-12T16:36:15.905Z,16.23
2023-03-12T16:38:44.136Z,16.17
2023-03-12T16:41:14.670Z,16.00
2023-03-12T16:43:44.111Z,16.42
2023-03-12T16:46:16.178Z,15.85
2023-03-12T16:48:44.247Z,16.40
2023-03-12T16:51:16.418Z,16.27
2023-03-12T16:53:44.801Z,17.50
2023-03-12T16:56:18.614Z,17.05
2023-03-12T16:58:47.207Z,16.73
2023-03-12T17:01:16.876Z,16.63
2023-03-12T17:03:49.086Z,16.15
2023-03-12T17:06:21.220Z,17.10
2023-03-12T17:08:49.486Z,17.40
2023-03-12T17:11:20.528Z,17.00
2023-03-12T17:13:52.528Z,16.80
2023-03-12T17:16:20.962Z,18.75
2023-03-12T17:18:48.966Z,18.90
2023-03-12T17:21:20.295Z,17.85
2023-03-12T17:23:52.628Z,17.10
2023-03-12T17:26:20.846Z,16.77
2023-03-12T17:28:49.032Z,16.80
2023-03-12T17:31:17.149Z,17.25
2023-03-12T17:33:45.285Z,17.40
2023-03-12T17:36:13.284Z,17.35
2023-03-12T17:38:42.745Z,18.88
2023-03-12T17:41:25.464Z,17.80
2023-03-12T17:43:54.836Z,18.33
2023-03-12T17:46:23.123Z,17.77
2023-03-12T17:48:51.161Z,17.70
2023-03-12T17:51:19.159Z,17.20
2023-03-12T17:53:48.940Z,19.30
2023-03-12T17:56:18.172Z,17.33
2023-03-12T17:58:46.307Z,18.33
2023-03-12T18:01:23.877Z,17.47
2023-03-12T18:03:52.088Z,17.50
2023-03-12T18:06:20.111Z,16.90
2023-03-12T18:08:49.457Z,17.27
2023-03-12T18:11:17.592Z,19.73
2023-03-12T18:13:47.497Z,19.03
2023-03-12T18:16:16.558Z,16.90
2023-03-12T18:18:53.041Z,16.97
2023-03-12T18:21:21.106Z,16.93
2023-03-12T18:23:50.841Z,18.00
2023-03-12T18:26:20.807Z,19.90
2023-03-12T18:28:50.823Z,17.60
2023-03-12T18:31:18.888Z,17.17
2023-03-12T18:33:46.996Z,17.50
2023-03-12T18:36:15.022Z,17.37
2023-03-12T18:38:42.990Z,16.73
2023-03-12T18:41:13.846Z,17.50
2023-03-12T18:43:42.733Z,16.90
2023-03-12T18:46:11.410Z,17.17
2023-03-12T18:48:40.522Z,18.00
2023-03-12T18:51:09.750Z,18.00
2023-03-12T18:53:37.717Z,17.73
2023-03-12T18:56:06.436Z,17.50
2023-03-12T18:58:35.719Z,17.00
2023-03-12T19:01:03.756Z,17.60
2023-03-12T19:03:36.613Z,16.77
2023-03-12T19:06:06.519Z,16.70
2023-03-12T19:08:34.903Z,17.00
2023-03-12T19:11:05.248Z,17.93
2023-03-12T19:13:33.371Z,16.87
2023-03-12T19:16:05.009Z,17.27
2023-03-12T19:18:33.161Z,16.77
2023-03-12T19:21:02.319Z,18.10
2023-03-12T19:23:30.531Z,18.40
2023-03-12T19:25:58.577Z,17.27
2023-03-12T19:28:26.660Z,17.10
2023-03-12T19:31:00.475Z,16.87
2023-03-12T19:33:30.357Z,16.97
2023-03-12T19:35:59.054Z,17.33
2023-03-12T19:38:27.350Z,16.43
2023-03-12T19:40:57.975Z,16.40
2023-03-12T19:43:26.717Z,16.80
2023-03-12T19:45:55.844Z,17.47
2023-03-12T19:48:25.420Z,17.20
2023-03-12T19:50:56.057Z,17.00
2023-03-12T19:53:24.775Z,17.03
2023-03-12T19:55:53.248Z,16.70
2023-03-12T19:58:21.628Z,18.37
2023-03-12T20:00:50.162Z,17.50
2023-03-12T20:03:18.981Z,18.07
2023-03-12T20:05:48.502Z,18.57
2023-03-12T20:08:20.936Z,17.33
2023-03-12T20:10:49.925Z,18.13
2023-03-12T20:13:18.793Z,17.83
2023-03-12T20:15:48.658Z,18.30
2023-03-12T20:18:17.231Z,18.73
2023-03-12T20:20:47.648Z,19.70
2023-03-12T20:23:17.625Z,19.20
2023-03-12T20:25:49.998Z,19.67
2023-03-12T20:28:18.790Z,19.63
2023-03-12T20:30:48.733Z,19.60
2023-03-12T20:33:17.303Z,22.20
2023-03-12T20:35:45.826Z,20.57
2023-03-12T20:38:14.550Z,20.43
2023-03-12T20:40:49.960Z,17.90
2023-03-12T20:43:18.758Z,18.10
2023-03-12T20:45:49.186Z,20.60
2023-03-12T20:48:17.855Z,19.30
2023-03-12T20:50:46.297Z,19.27
2023-03-12T20:53:14.707Z,20.20
2023-03-12T20:55:43.058Z,21.70
2023-03-12T20:58:12.534Z,19.90
2023-03-12T21:00:42.833Z,18.00
2023-03-12T21:03:13.236Z,17.80
2023-03-12T21:05:41.264Z,20.50
2023-03-12T21:08:09.284Z,19.00
2023-03-12T21:10:37.934Z,20.00
2023-03-12T21:13:06.129Z,17.57
2023-03-12T21:15:35.543Z,18.70
2023-03-12T21:18:03.528Z,17.90
2023-03-12T21:20:31.750Z,17.20
2023-03-12T21:23:00.842Z,19.47
2023-03-12T21:25:29.684Z,17.60
2023-03-12T21:27:57.747Z,17.40
2023-03-12T21:30:25.757Z,17.70
2023-03-12T21:32:55.506Z,17.13
2023-03-12T21:35:23.710Z,17.13
2023-03-12T21:37:51.811Z,17.63
2023-03-12T21:40:20.091Z,17.70
2023-03-12T21:42:48.135Z,17.70
2023-03-12T21:45:16.232Z,17.50
2023-03-12T21:47:44.288Z,17.27
2023-03-12T21:50:13.987Z,17.97
2023-03-12T21:52:47.760Z,18.53
2023-03-12T21:55:16.419Z,18.20
2023-03-12T21:57:46.071Z,18.30
2023-03-12T22:00:15.686Z,18.27
2023-03-12T22:02:45.133Z,18.07
2023-03-12T22:05:14.783Z,18.40
2023-03-12T22:07:42.793Z,18.20
2023-03-12T22:10:12.241Z,18.27
2023-03-12T22:12:40.750Z,19.10
2023-03-12T22:15:10.021Z,18.70
2023-03-12T22:17:38.145Z,19.00
2023-03-12T22:20:07.975Z,18.43
2023-03-12T22:22:37.369Z,18.87
2023-03-12T22:25:06.091Z,18.50
2023-03-12T22:27:34.100Z,18.20
2023-03-12T22:30:02.151Z,17.47
2023-03-12T22:32:30.334Z,17.70
2023-03-12T22:34:58.330Z,17.83
2023-03-12T22:37:26.551Z,17.37
2023-03-12T22:39:58.849Z,17.47
2023-03-12T22:42:26.865Z,17.90
2023-03-12T22:44:54.901Z,18.00
2023-03-12T22:47:23.429Z,17.90
2023-03-12T22:49:52.963Z,17.70
2023-03-12T22:52:21.074Z,17.43
2023-03-12T22:54:49.489Z,17.70
2023-03-12T22:57:18.988Z,18.20
2023-03-12T22:59:48.915Z,17.33
2023-03-12T23:02:17.251Z,17.60
2023-03-12T23:04:45.645Z,16.70
2023-03-12T23:07:16.132Z,16.67
2023-03-12T23:09:45.807Z,16.93
2023-03-12T23:12:13.748Z,16.90
2023-03-12T23:14:43.196Z,16.63
2023-03-12T23:17:13.365Z,17.10
2023-03-12T23:19:42.731Z,16.90
2023-03-12T23:22:16.636Z,16.80
2023-03-12T23:24:44.714Z,16.60
2023-03-12T23:27:12.671Z,16.90
2023-03-12T23:29:43.172Z,16.27
2023-03-12T23:32:11.146Z,17.00
2023-03-12T23:34:39.455Z,16.17
2023-03-12T23:37:07.578Z,16.80
2023-03-12T23:39:51.804Z,16.60
2023-03-12T23:42:22.444Z,16.43
2023-03-12T23:44:52.010Z,16.70
2023-03-12T23:47:20.033Z,16.60
2023-03-12T23:49:47.962Z,16.60
2023-03-12T23:52:16.444Z,16.70
2023-03-12T23:54:44.429Z,16.40
2023-03-12T23:57:12.410Z,17.20
2023-03-12T23:59:43.198Z,16.20
